Flight Track Log - Related Links

Times and Time Zones

All times are in EDT time to prevent confusion due to time zone crossing. See the ASQ5975 flight status page for this flight to view local times or setup timezone preferences in your user account.

Time Position Orientation Groundspeed Altitude Reporting Facility
EDT Latitude Longitude Course Direction KTS MPH feet Rate Location/Type
Sat 07:54:31 PM 42.0167 -87.8667 77° East 151 174 2,600  Level Chicago TRACON
Sat 07:55:31 PM 42.0333 -87.8000 71° East 206 237 4,700 1,789 Climbing Chicago TRACON
Sat 07:56:25 PM 42.0500 -87.7333 71° East 270 311 6,000 1,947 Climbing Chicago TRACON
Sat 07:57:00 PM 42.1859 -87.3092 66° East  Level FlightAware Approximate
Sat 07:57:25 PM 42.0667 -87.6167 79° East 300 345 8,400  Level Chicago TRACON
Sat 07:58:00 PM 42.2372 -87.1553 66° East  Level FlightAware Approximate
Sat 07:58:40 PM 42.0753 -87.4936 85° East 301 346 11,000  Level Chicago Center
Sat 07:59:00 PM 42.2729 -86.9959 77° East  Level FlightAware Approximate
Sat 07:59:42 PM 42.0608 -87.3733 99° East 323 372 13,500  Level Chicago Center
Sat 08:00:46 PM 42.0456 -87.2356 98° East 312 359 16,400 1,905 Climbing Chicago Center
Sat 08:01:48 PM 42.0344 -87.1142 97° East 322 371 17,500 919 Climbing Chicago Center
Sat 08:02:50 PM 42.0250 -86.9786 95° East 349 402 18,300 780 Climbing Chicago Center
Sat 08:03:51 PM 42.0400 -86.8278 82° East 400 460 19,100 878 Climbing Chicago Center
Sat 08:04:53 PM 42.0600 -86.6578 81° East 422 486 20,100 1,016 Climbing Chicago Center
Sat 08:05:55 PM 42.0806 -86.4969 80° East 433 498 21,200 1,113 Climbing Chicago Center
Sat 08:06:57 PM 42.1008 -86.3356 80° East 436 502 22,400 1,161 Climbing Chicago Center
Sat 08:07:59 PM 42.1208 -86.1750 80° East 435 501 23,600 1,171 Climbing Chicago Center
Sat 08:09:00 PM 42.1414 -86.0114 80° East 441 507 24,800 1,268 Climbing Chicago Center
Sat 08:10:02 PM 42.1639 -85.8208 81° East 443 510 26,200 1,210 Climbing Chicago Center
Sat 08:11:04 PM 42.1836 -85.6564 81° East 446 513 27,300 1,113 Climbing Chicago Center
Sat 08:12:06 PM 42.2019 -85.4908 81° East 449 517 28,500 1,161 Climbing Chicago Center
Sat 08:13:08 PM 42.2214 -85.3253 81° East 450 518 29,700 1,122 Climbing Chicago Center
Sat 08:14:09 PM 42.2417 -85.1558 81° East 458 527 30,800 1,073 Climbing Chicago Center
Sat 08:15:11 PM 42.2608 -84.9892 81° East 454 522 31,900 1,065 Climbing Chicago Center
Sat 08:16:13 PM 42.2839 -84.7872 81° East 455 524 33,000 1,016 Climbing Chicago Center
Sat 08:17:15 PM 42.3022 -84.6181 82° East 458 527 34,000 919 Climbing Chicago Center
Sat 08:18:17 PM 42.3208 -84.4469 82° East 461 531 34,900 531 Climbing Chicago Center
Sat 08:19:08 PM 42.3333 -84.3050 83° East 460 529 35,000 54 Climbing Cleveland Center
Sat 08:20:08 PM 42.3536 -84.1208 81° East 473 544 35,000  Level Cleveland Center
Sat 08:21:08 PM 42.3742 -83.9253 82° East 499 574 35,000  Level Cleveland Center
Sat 08:22:08 PM 42.3942 -83.7294 82° East 515 593 35,000  Level Cleveland Center
Sat 08:23:08 PM 42.4106 -83.5022 84° East 536 617 35,000  Level Cleveland Center
Sat 08:24:08 PM 42.4178 -83.2944 87° East 548 631 35,000  Level Cleveland Center
Sat 08:25:08 PM 42.4244 -83.0894 87° East 549 632 35,000  Level Cleveland Center
Sat 08:26:08 PM 42.4331 -82.8844 87° East 549 632 35,000  Level Cleveland Center
Sat 08:27:08 PM 42.4369 -82.6819 88° East 549 632 35,000  Level Cleveland Center
Sat 08:28:08 PM 42.4447 -82.4767 87° East 544 626 35,000  Level Cleveland Center
Sat 08:29:08 PM 42.4497 -82.2744 88° East 544 626 35,000  Level Cleveland Center
Sat 08:30:08 PM 42.4544 -82.0944 88° East 537 618 35,000  Level Cleveland Center
Sat 08:31:08 PM 42.4589 -81.9058 88° East 537 618 35,000  Level Cleveland Center
Sat 08:32:08 PM 42.4653 -81.6808 88° East 537 618 35,000  Level Cleveland Center
Sat 08:33:08 PM 42.4692 -81.4783 88° East 537 618 35,000  Level Cleveland Center
Sat 08:34:08 PM 42.4728 -81.2503 89° East 532 612 35,000  Level Cleveland Center
Sat 08:35:08 PM 42.4758 -81.0475 89° East 544 626 35,000  Level Cleveland Center
Sat 08:36:08 PM 42.4786 -80.8422 89° East 544 626 35,000  Level Cleveland Center
Sat 08:37:08 PM 42.4811 -80.6339 89° East 544 626 35,000  Level Cleveland Center
Sat 08:38:08 PM 42.4850 -80.4311 88° East 544 626 35,000  Level Cleveland Center
Sat 08:39:08 PM 42.4867 -80.2283 89° East 544 626 35,000  Level Cleveland Center
Sat 08:40:08 PM 42.4881 -80.0258 89° East 544 626 35,000  Level Cleveland Center
Sat 08:41:08 PM 42.4953 -79.8425 87° East 538 619 35,000  Level Cleveland Center
Sat 08:42:08 PM 42.4939 -79.6400 90° East 532 612 35,000  Level Cleveland Center
Sat 08:43:08 PM 42.4942 -79.4400 90° East 532 612 35,000  Level Cleveland Center
Sat 08:44:08 PM 42.4961 -79.2344 89° East 532 612 35,000  Level Cleveland Center
Sat 08:45:08 PM 42.5103 -79.0311 85° East 537 618 35,000  Level Cleveland Center
Sat 08:46:08 PM 42.5219 -78.8281 85° East 537 618 35,000  Level Cleveland Center
Sat 08:47:08 PM 42.5353 -78.6278 85° East 537 618 35,000  Level Cleveland Center
Sat 08:48:08 PM 42.5506 -78.4242 84° East 537 618 35,000  Level Cleveland Center
Sat 08:49:08 PM 42.5611 -78.2236 86° East 537 618 35,000  Level Cleveland Center
Sat 08:50:08 PM 42.5736 -78.0203 85° East 537 618 35,000  Level Cleveland Center
Sat 08:51:08 PM 42.5836 -77.8225 86° East 537 618 35,000  Level Cleveland Center
Sat 08:52:40 PM 42.6050 -77.4878 85° East 532 612 35,000  Level Boston Center
Sat 08:53:40 PM 42.6131 -77.3047 87° East 532 612 35,000  Level Boston Center
Sat 08:54:40 PM 42.6236 -77.1022 86° East 532 612 35,000  Level Boston Center
Sat 08:55:40 PM 42.6358 -76.9028 85° East 532 612 35,000  Level Boston Center
Sat 08:56:40 PM 42.6458 -76.7000 86° East 532 612 35,000  Level Boston Center
Sat 08:57:40 PM 42.6553 -76.4975 86° East 532 612 35,000  Level Boston Center
Sat 08:58:40 PM 42.6642 -76.2975 86° East 532 612 35,000  Level Boston Center
Sat 08:59:40 PM 42.6731 -76.0975 86° East 532 612 35,000 -50 Level Boston Center
Sat 09:00:40 PM 42.6814 -75.8944 87° East 532 612 34,900  Descending Boston Center
Sat 09:01:40 PM 42.6894 -75.6917 87° East 532 612 35,000 50 Climbing Boston Center
Sat 09:02:40 PM 42.6972 -75.4914 87° East 532 612 35,000  Level Boston Center
Sat 09:03:40 PM 42.7022 -75.2908 88° East 532 612 35,000 -200 Level Boston Center
Sat 09:04:40 PM 42.7114 -75.0906 86° East 532 612 34,600 -1,850 Descending Boston Center
Sat 09:05:40 PM 42.7156 -74.8958 88° East 527 606 31,300 -2,800 Descending Boston Center
Sat 09:06:40 PM 42.7219 -74.6953 87° East 527 606 29,000 -1,150 Descending Boston Center
Sat 09:07:40 PM 42.7275 -74.5061 88° East 514 592 29,000 -50 Level Boston Center
Sat 09:08:40 PM 42.7331 -74.3142 88° East 514 592 28,900 -850 Descending Boston Center
Sat 09:09:40 PM 42.7403 -74.1192 87° East 514 592 27,300 -2,050 Descending Boston Center
Sat 09:10:40 PM 42.7428 -73.9300 89° East 514 592 24,800 -2,050 Descending Boston Center
Sat 09:11:40 PM 42.7494 -73.7378 87° East 514 592 23,200 -1,500 Descending Boston Center
Sat 09:12:40 PM 42.7578 -73.5458 87° East 493 567 21,800 -1,400 Descending Boston Center
Sat 09:13:40 PM 42.7656 -73.3678 87° East 473 544 20,400 -1,350 Descending Boston Center
Sat 09:14:40 PM 42.7731 -73.1925 87° East 467 537 19,100 -700 Descending Boston Center
Sat 09:15:40 PM 42.7742 -73.0169 89° East 461 531 19,000 -50 Descending Boston Center
Sat 09:16:40 PM 42.7808 -72.8758 86° East 456 525 19,000  Level Boston Center
Sat 09:17:40 PM 42.7858 -72.6861 88° East 456 525 19,000 -1,200 Level Boston Center
Sat 09:18:40 PM 42.7900 -72.5136 88° East 456 525 16,600 -2,550 Descending Boston Center
Sat 09:19:40 PM 42.7942 -72.3522 88° East 449 517 13,900 -2,650 Descending Boston Center
Sat 09:20:40 PM 42.8044 -72.1742 85° East 430 495 11,300 -1,750 Descending Boston Center
Sat 09:21:40 PM 42.8122 -72.0383 85° East 387 445 10,400 -1,250 Descending Boston Center
Sat 09:22:40 PM 42.8222 -71.9136 84° East 338 389 8,800 -1,600 Descending Boston Center
Sat 09:23:40 PM 42.8258 -71.7975 88° East 321 369 7,200 -1,700 Descending Boston Center
Sat 09:24:40 PM 42.8042 -71.6844 105° East 306 352 5,400 -1,409 Descending Boston Center
Sat 09:25:52 PM 42.8058 -71.5939 89° East 284 327 4,100 -1,083 Descending Boston Center

Login

Don't have an account? Register now (free) for customized features, flight alerts, and more!